sensor_id;sensor_type;location;lat;lon;timestamp;temperature;humidity
38380;DHT22;38377;47.418;18.882;2023-02-03T00:01:31;1.80;99.90
38380;DHT22;38377;47.418;18.882;2023-02-03T00:03:57;1.80;99.90
38380;DHT22;38377;47.418;18.882;2023-02-03T00:06:22;1.80;99.90
38380;DHT22;38377;47.418;18.882;2023-02-03T00:08:49;1.80;99.90
38380;DHT22;38377;47.418;18.882;2023-02-03T00:11:18;1.80;99.90
38380;DHT22;38377;47.418;18.882;2023-02-03T00:13:44;1.80;99.90
38380;DHT22;38377;47.418;18.882;2023-02-03T00:16:09;1.90;99.90
38380;DHT22;38377;47.418;18.882;2023-02-03T00:18:35;1.90;99.90
38380;DHT22;38377;47.418;18.882;2023-02-03T00:21:00;1.90;99.90
38380;DHT22;38377;47.418;18.882;2023-02-03T00:23:26;1.90;99.90
38380;DHT22;38377;47.418;18.882;2023-02-03T00:25:56;2.00;99.90
38380;DHT22;38377;47.418;18.882;2023-02-03T00:28:22;1.90;99.90
38380;DHT22;38377;47.418;18.882;2023-02-03T00:30:47;2.00;99.90
38380;DHT22;38377;47.418;18.882;2023-02-03T00:33:13;1.90;99.90
38380;DHT22;38377;47.418;18.882;2023-02-03T00:35:39;2.00;99.90
38380;DHT22;38377;47.418;18.882;2023-02-03T00:38:04;1.90;99.90
38380;DHT22;38377;47.418;18.882;2023-02-03T00:40:30;2.00;99.90
38380;DHT22;38377;47.418;18.882;2023-02-03T00:42:55;2.00;99.90
38380;DHT22;38377;47.418;18.882;2023-02-03T00:45:21;2.00;99.90
38380;DHT22;38377;47.418;18.882;2023-02-03T00:47:47;2.00;99.90
38380;DHT22;38377;47.418;18.882;2023-02-03T00:50:12;2.00;99.90
38380;DHT22;38377;47.418;18.882;2023-02-03T00:52:38;1.90;99.90
38380;DHT22;38377;47.418;18.882;2023-02-03T00:55:04;1.90;99.90
38380;DHT22;38377;47.418;18.882;2023-02-03T00:57:29;1.90;99.90
38380;DHT22;38377;47.418;18.882;2023-02-03T00:59:55;1.90;99.90
38380;DHT22;38377;47.418;18.882;2023-02-03T01:02:22;1.90;99.90
38380;DHT22;38377;47.418;18.882;2023-02-03T01:04:48;1.90;99.90
38380;DHT22;38377;47.418;18.882;2023-02-03T01:07:14;1.80;99.90
38380;DHT22;38377;47.418;18.882;2023-02-03T01:09:39;1.80;99.90
38380;DHT22;38377;47.418;18.882;2023-02-03T01:12:05;1.80;99.90
38380;DHT22;38377;47.418;18.882;2023-02-03T01:14:30;1.80;99.90
38380;DHT22;38377;47.418;18.882;2023-02-03T01:16:56;1.80;99.90
38380;DHT22;38377;47.418;18.882;2023-02-03T01:19:23;1.80;99.90
38380;DHT22;38377;47.418;18.882;2023-02-03T01:21:49;1.70;99.90
38380;DHT22;38377;47.418;18.882;2023-02-03T01:24:14;1.60;99.90
38380;DHT22;38377;47.418;18.882;2023-02-03T01:26:40;1.70;99.90
38380;DHT22;38377;47.418;18.882;2023-02-03T01:29:05;1.60;99.90
38380;DHT22;38377;47.418;18.882;2023-02-03T01:31:32;1.60;99.90
38380;DHT22;38377;47.418;18.882;2023-02-03T01:34:04;1.60;99.90
38380;DHT22;38377;47.418;18.882;2023-02-03T01:36:30;1.60;99.90
38380;DHT22;38377;47.418;18.882;2023-02-03T01:38:56;1.60;99.90
38380;DHT22;38377;47.418;18.882;2023-02-03T01:41:23;1.50;99.90
38380;DHT22;38377;47.418;18.882;2023-02-03T01:43:49;1.50;99.90
38380;DHT22;38377;47.418;18.882;2023-02-03T01:48:47;1.30;99.90
38380;DHT22;38377;47.418;18.882;2023-02-03T01:51:13;1.30;99.90
38380;DHT22;38377;47.418;18.882;2023-02-03T01:53:38;1.30;99.90
38380;DHT22;38377;47.418;18.882;2023-02-03T01:56:04;1.20;99.90
38380;DHT22;38377;47.418;18.882;2023-02-03T01:58:31;1.20;99.90
38380;DHT22;38377;47.418;18.882;2023-02-03T02:01:00;1.20;99.90
38380;DHT22;38377;47.418;18.882;2023-02-03T02:03:33;1.10;99.90
38380;DHT22;38377;47.418;18.882;2023-02-03T02:06:04;1.10;99.90
38380;DHT22;38377;47.418;18.882;2023-02-03T02:08:30;1.10;99.90
38380;DHT22;38377;47.418;18.882;2023-02-03T02:10:56;1.10;99.90
38380;DHT22;38377;47.418;18.882;2023-02-03T02:13:23;1.10;99.90
38380;DHT22;38377;47.418;18.882;2023-02-03T02:33:45;1.10;99.90
38380;DHT22;38377;47.418;18.882;2023-02-03T02:41:25;1.20;99.90
38380;DHT22;38377;47.418;18.882;2023-02-03T02:43:59;1.20;99.90
38380;DHT22;38377;47.418;18.882;2023-02-03T02:46:47;1.20;99.90
38380;DHT22;38377;47.418;18.882;2023-02-03T02:49:13;1.20;99.90
38380;DHT22;38377;47.418;18.882;2023-02-03T02:51:40;1.30;99.90
38380;DHT22;38377;47.418;18.882;2023-02-03T02:54:09;1.20;99.90
38380;DHT22;38377;47.418;18.882;2023-02-03T02:56:37;1.20;99.90
38380;DHT22;38377;47.418;18.882;2023-02-03T02:59:03;1.10;99.90
38380;DHT22;38377;47.418;18.882;2023-02-03T03:01:29;1.10;99.90
38380;DHT22;38377;47.418;18.882;2023-02-03T03:03:55;1.20;99.90
38380;DHT22;38377;47.418;18.882;2023-02-03T03:06:28;1.20;99.90
38380;DHT22;38377;47.418;18.882;2023-02-03T03:08:56;1.20;99.90
38380;DHT22;38377;47.418;18.882;2023-02-03T03:11:23;1.20;99.90
38380;DHT22;38377;47.418;18.882;2023-02-03T03:13:51;1.20;99.90
38380;DHT22;38377;47.418;18.882;2023-02-03T03:16:19;1.10;99.90
38380;DHT22;38377;47.418;18.882;2023-02-03T03:18:57;1.10;99.90
38380;DHT22;38377;47.418;18.882;2023-02-03T03:21:26;1.00;99.90
38380;DHT22;38377;47.418;18.882;2023-02-03T03:23:53;1.00;99.90
38380;DHT22;38377;47.418;18.882;2023-02-03T03:26:27;1.00;99.90
38380;DHT22;38377;47.418;18.882;2023-02-03T03:29:11;0.90;99.90
38380;DHT22;38377;47.418;18.882;2023-02-03T03:31:38;0.90;99.90
38380;DHT22;38377;47.418;18.882;2023-02-03T03:34:04;0.90;99.90
38380;DHT22;38377;47.418;18.882;2023-02-03T03:36:31;0.80;99.90
38380;DHT22;38377;47.418;18.882;2023-02-03T03:44:13;0.90;99.90
38380;DHT22;38377;47.418;18.882;2023-02-03T03:49:26;0.90;99.90
38380;DHT22;38377;47.418;18.882;2023-02-03T03:51:57;0.90;99.90
38380;DHT22;38377;47.418;18.882;2023-02-03T03:54:23;0.90;99.90
38380;DHT22;38377;47.418;18.882;2023-02-03T03:59:16;0.90;99.90
38380;DHT22;38377;47.418;18.882;2023-02-03T04:01:44;0.90;99.90
38380;DHT22;38377;47.418;18.882;2023-02-03T04:04:10;0.90;99.90
38380;DHT22;38377;47.418;18.882;2023-02-03T04:06:37;1.00;99.90
38380;DHT22;38377;47.418;18.882;2023-02-03T04:09:03;1.00;99.90
38380;DHT22;38377;47.418;18.882;2023-02-03T04:11:29;1.00;99.90
38380;DHT22;38377;47.418;18.882;2023-02-03T04:14:13;1.00;99.90
38380;DHT22;38377;47.418;18.882;2023-02-03T04:16:39;1.00;99.90
38380;DHT22;38377;47.418;18.882;2023-02-03T04:19:04;1.00;99.90
38380;DHT22;38377;47.418;18.882;2023-02-03T04:21:30;1.00;99.90
38380;DHT22;38377;47.418;18.882;2023-02-03T04:23:55;0.90;99.90
38380;DHT22;38377;47.418;18.882;2023-02-03T04:26:21;0.90;99.90
38380;DHT22;38377;47.418;18.882;2023-02-03T04:28:47;0.80;99.90
38380;DHT22;38377;47.418;18.882;2023-02-03T04:31:12;0.80;99.90
38380;DHT22;38377;47.418;18.882;2023-02-03T04:33:38;0.80;99.90
38380;DHT22;38377;47.418;18.882;2023-02-03T04:36:04;0.80;99.90
38380;DHT22;38377;47.418;18.882;2023-02-03T04:38:29;0.80;99.90
38380;DHT22;38377;47.418;18.882;2023-02-03T04:40:55;0.90;99.90
38380;DHT22;38377;47.418;18.882;2023-02-03T04:43:21;0.90;99.90
38380;DHT22;38377;47.418;18.882;2023-02-03T04:45:46;0.90;99.90
38380;DHT22;38377;47.418;18.882;2023-02-03T04:48:12;1.00;99.90
38380;DHT22;38377;47.418;18.882;2023-02-03T04:50:37;1.00;99.90
38380;DHT22;38377;47.418;18.882;2023-02-03T04:53:03;1.10;99.90
38380;DHT22;38377;47.418;18.882;2023-02-03T04:55:29;1.00;99.90
38380;DHT22;38377;47.418;18.882;2023-02-03T04:57:55;1.10;99.90
38380;DHT22;38377;47.418;18.882;2023-02-03T05:00:20;1.10;99.90
38380;DHT22;38377;47.418;18.882;2023-02-03T05:02:46;1.10;99.90
38380;DHT22;38377;47.418;18.882;2023-02-03T05:05:11;1.10;99.90
38380;DHT22;38377;47.418;18.882;2023-02-03T05:07:37;1.10;99.90
38380;DHT22;38377;47.418;18.882;2023-02-03T05:10:02;1.10;99.90
38380;DHT22;38377;47.418;18.882;2023-02-03T05:12:28;1.10;99.90
38380;DHT22;38377;47.418;18.882;2023-02-03T05:14:53;1.10;99.90
38380;DHT22;38377;47.418;18.882;2023-02-03T05:17:19;1.10;99.90
38380;DHT22;38377;47.418;18.882;2023-02-03T05:19:44;1.10;99.90
38380;DHT22;38377;47.418;18.882;2023-02-03T05:22:10;1.00;99.90
38380;DHT22;38377;47.418;18.882;2023-02-03T05:24:36;1.00;99.90
38380;DHT22;38377;47.418;18.882;2023-02-03T05:27:01;1.00;99.90
38380;DHT22;38377;47.418;18.882;2023-02-03T05:29:27;1.00;99.90
38380;DHT22;38377;47.418;18.882;2023-02-03T05:31:55;1.00;99.90
38380;DHT22;38377;47.418;18.882;2023-02-03T05:34:21;1.00;99.90
38380;DHT22;38377;47.418;18.882;2023-02-03T05:36:46;0.90;99.90
38380;DHT22;38377;47.418;18.882;2023-02-03T05:39:12;1.00;99.90
38380;DHT22;38377;47.418;18.882;2023-02-03T05:41:38;0.90;99.90
38380;DHT22;38377;47.418;18.882;2023-02-03T05:44:19;1.00;99.90
38380;DHT22;38377;47.418;18.882;2023-02-03T05:46:45;0.90;99.90
38380;DHT22;38377;47.418;18.882;2023-02-03T05:49:11;1.00;99.90
38380;DHT22;38377;47.418;18.882;2023-02-03T05:51:37;0.90;99.90
38380;DHT22;38377;47.418;18.882;2023-02-03T05:54:02;0.90;99.90
38380;DHT22;38377;47.418;18.882;2023-02-03T05:56:28;0.90;99.90
38380;DHT22;38377;47.418;18.882;2023-02-03T05:58:53;0.90;99.90
38380;DHT22;38377;47.418;18.882;2023-02-03T06:01:19;0.90;99.90
38380;DHT22;38377;47.418;18.882;2023-02-03T06:03:45;0.90;99.90
38380;DHT22;38377;47.418;18.882;2023-02-03T06:06:11;0.90;99.90
38380;DHT22;38377;47.418;18.882;2023-02-03T06:08:36;1.00;99.90
38380;DHT22;38377;47.418;18.882;2023-02-03T06:11:02;1.00;99.90
38380;DHT22;38377;47.418;18.882;2023-02-03T06:13:27;1.00;99.90
38380;DHT22;38377;47.418;18.882;2023-02-03T06:15:53;1.00;99.90
38380;DHT22;38377;47.418;18.882;2023-02-03T06:18:19;1.10;99.90
38380;DHT22;38377;47.418;18.882;2023-02-03T06:20:44;1.10;99.90
38380;DHT22;38377;47.418;18.882;2023-02-03T06:23:10;1.10;99.90
38380;DHT22;38377;47.418;18.882;2023-02-03T06:25:35;1.10;99.90
38380;DHT22;38377;47.418;18.882;2023-02-03T06:28:01;1.20;99.90
38380;DHT22;38377;47.418;18.882;2023-02-03T06:30:26;1.20;99.90
38380;DHT22;38377;47.418;18.882;2023-02-03T06:32:53;1.20;99.90
38380;DHT22;38377;47.418;18.882;2023-02-03T06:35:19;1.20;99.90
38380;DHT22;38377;47.418;18.882;2023-02-03T06:37:44;1.20;99.90
38380;DHT22;38377;47.418;18.882;2023-02-03T06:40:10;1.20;99.90
38380;DHT22;38377;47.418;18.882;2023-02-03T06:42:36;1.20;99.90
38380;DHT22;38377;47.418;18.882;2023-02-03T06:45:01;1.20;99.90
38380;DHT22;38377;47.418;18.882;2023-02-03T06:47:27;1.20;99.90
38380;DHT22;38377;47.418;18.882;2023-02-03T06:49:53;1.20;99.90
38380;DHT22;38377;47.418;18.882;2023-02-03T06:52:18;1.20;99.90
38380;DHT22;38377;47.418;18.882;2023-02-03T06:54:44;1.20;99.90
38380;DHT22;38377;47.418;18.882;2023-02-03T06:57:10;1.20;99.90
38380;DHT22;38377;47.418;18.882;2023-02-03T06:59:35;1.20;99.90
38380;DHT22;38377;47.418;18.882;2023-02-03T07:02:01;1.30;99.90
38380;DHT22;38377;47.418;18.882;2023-02-03T07:04:26;1.30;99.90
38380;DHT22;38377;47.418;18.882;2023-02-03T07:06:57;1.30;99.90
38380;DHT22;38377;47.418;18.882;2023-02-03T07:09:23;1.30;99.90
38380;DHT22;38377;47.418;18.882;2023-02-03T07:11:48;1.20;99.90
38380;DHT22;38377;47.418;18.882;2023-02-03T07:14:14;1.30;99.90
38380;DHT22;38377;47.418;18.882;2023-02-03T07:16:39;1.30;99.90
38380;DHT22;38377;47.418;18.882;2023-02-03T07:19:05;1.20;99.90
38380;DHT22;38377;47.418;18.882;2023-02-03T07:21:31;1.30;99.90
38380;DHT22;38377;47.418;18.882;2023-02-03T07:23:56;1.30;99.90
38380;DHT22;38377;47.418;18.882;2023-02-03T07:26:22;1.30;99.90
38380;DHT22;38377;47.418;18.882;2023-02-03T07:28:49;1.30;99.90
38380;DHT22;38377;47.418;18.882;2023-02-03T07:31:16;1.30;99.90
38380;DHT22;38377;47.418;18.882;2023-02-03T07:33:42;1.40;99.90
38380;DHT22;38377;47.418;18.882;2023-02-03T07:36:08;1.40;99.90
38380;DHT22;38377;47.418;18.882;2023-02-03T07:38:34;1.40;99.90
38380;DHT22;38377;47.418;18.882;2023-02-03T07:41:00;1.40;99.90
38380;DHT22;38377;47.418;18.882;2023-02-03T07:43:25;1.40;99.90
38380;DHT22;38377;47.418;18.882;2023-02-03T07:45:51;1.40;99.90
38380;DHT22;38377;47.418;18.882;2023-02-03T07:48:16;1.40;99.90
38380;DHT22;38377;47.418;18.882;2023-02-03T07:50:42;1.40;99.90
38380;DHT22;38377;47.418;18.882;2023-02-03T07:53:08;1.40;99.90
38380;DHT22;38377;47.418;18.882;2023-02-03T07:55:33;1.40;99.90
38380;DHT22;38377;47.418;18.882;2023-02-03T07:57:59;1.40;99.90
38380;DHT22;38377;47.418;18.882;2023-02-03T08:00:25;1.40;99.90
38380;DHT22;38377;47.418;18.882;2023-02-03T08:02:51;1.40;99.90
38380;DHT22;38377;47.418;18.882;2023-02-03T08:05:16;1.40;99.90
38380;DHT22;38377;47.418;18.882;2023-02-03T08:07:42;1.40;99.90
38380;DHT22;38377;47.418;18.882;2023-02-03T08:10:08;1.40;99.90
38380;DHT22;38377;47.418;18.882;2023-02-03T08:12:34;1.40;99.90
38380;DHT22;38377;47.418;18.882;2023-02-03T08:15:00;1.40;99.90
38380;DHT22;38377;47.418;18.882;2023-02-03T08:17:26;1.40;99.90
38380;DHT22;38377;47.418;18.882;2023-02-03T08:19:51;1.40;99.90
38380;DHT22;38377;47.418;18.882;2023-02-03T08:22:17;1.40;99.90
38380;DHT22;38377;47.418;18.882;2023-02-03T08:24:44;1.40;99.90
38380;DHT22;38377;47.418;18.882;2023-02-03T08:27:14;1.40;99.90
38380;DHT22;38377;47.418;18.882;2023-02-03T08:29:40;1.40;99.90
38380;DHT22;38377;47.418;18.882;2023-02-03T08:32:12;1.50;99.90
38380;DHT22;38377;47.418;18.882;2023-02-03T08:34:38;1.50;99.90
38380;DHT22;38377;47.418;18.882;2023-02-03T08:37:04;1.50;99.90
38380;DHT22;38377;47.418;18.882;2023-02-03T08:39:30;1.50;99.90
38380;DHT22;38377;47.418;18.882;2023-02-03T08:41:56;1.40;99.90
38380;DHT22;38377;47.418;18.882;2023-02-03T08:44:21;1.40;99.90
38380;DHT22;38377;47.418;18.882;2023-02-03T08:46:50;1.40;99.90
38380;DHT22;38377;47.418;18.882;2023-02-03T08:49:16;1.40;99.90
38380;DHT22;38377;47.418;18.882;2023-02-03T08:51:43;1.30;99.90
38380;DHT22;38377;47.418;18.882;2023-02-03T08:54:08;1.30;99.90
38380;DHT22;38377;47.418;18.882;2023-02-03T08:56:34;1.30;99.90
38380;DHT22;38377;47.418;18.882;2023-02-03T08:58:59;1.10;99.90
38380;DHT22;38377;47.418;18.882;2023-02-03T09:01:25;1.10;99.90
38380;DHT22;38377;47.418;18.882;2023-02-03T09:03:51;1.00;99.90
38380;DHT22;38377;47.418;18.882;2023-02-03T09:06:16;1.00;99.90
38380;DHT22;38377;47.418;18.882;2023-02-03T09:08:42;0.90;99.90
38380;DHT22;38377;47.418;18.882;2023-02-03T09:11:12;0.90;99.90
38380;DHT22;38377;47.418;18.882;2023-02-03T09:13:38;0.80;99.90
38380;DHT22;38377;47.418;18.882;2023-02-03T09:16:07;0.90;99.90
38380;DHT22;38377;47.418;18.882;2023-02-03T09:18:33;0.90;99.90
38380;DHT22;38377;47.418;18.882;2023-02-03T09:20:59;0.80;99.90
38380;DHT22;38377;47.418;18.882;2023-02-03T09:23:25;0.80;99.90
38380;DHT22;38377;47.418;18.882;2023-02-03T09:25:50;0.80;99.90
38380;DHT22;38377;47.418;18.882;2023-02-03T09:28:16;0.80;99.90
38380;DHT22;38377;47.418;18.882;2023-02-03T09:30:41;0.90;99.90
38380;DHT22;38377;47.418;18.882;2023-02-03T09:33:07;0.90;99.90
38380;DHT22;38377;47.418;18.882;2023-02-03T09:35:32;0.90;99.90
38380;DHT22;38377;47.418;18.882;2023-02-03T09:37:58;0.90;99.90
38380;DHT22;38377;47.418;18.882;2023-02-03T09:40:29;0.90;99.90
38380;DHT22;38377;47.418;18.882;2023-02-03T09:45:28;1.00;99.90
38380;DHT22;38377;47.418;18.882;2023-02-03T09:47:55;1.00;99.90
38380;DHT22;38377;47.418;18.882;2023-02-03T09:50:26;1.00;99.90
38380;DHT22;38377;47.418;18.882;2023-02-03T09:52:52;1.10;99.90
38380;DHT22;38377;47.418;18.882;2023-02-03T09:57:54;1.20;99.90
38380;DHT22;38377;47.418;18.882;2023-02-03T10:00:25;1.20;99.90
38380;DHT22;38377;47.418;18.882;2023-02-03T10:02:59;1.30;99.90
38380;DHT22;38377;47.418;18.882;2023-02-03T10:08:18;1.30;99.90
38380;DHT22;38377;47.418;18.882;2023-02-03T10:16:15;1.30;99.90
38380;DHT22;38377;47.418;18.882;2023-02-03T10:18:50;1.30;99.90
38380;DHT22;38377;47.418;18.882;2023-02-03T10:21:23;1.30;99.90
38380;DHT22;38377;47.418;18.882;2023-02-03T10:23:52;1.30;99.90
38380;DHT22;38377;47.418;18.882;2023-02-03T10:26:20;1.30;99.90
38380;DHT22;38377;47.418;18.882;2023-02-03T10:28:50;1.30;99.90
38380;DHT22;38377;47.418;18.882;2023-02-03T10:31:21;1.20;99.90
38380;DHT22;38377;47.418;18.882;2023-02-03T10:33:48;1.20;99.90
38380;DHT22;38377;47.418;18.882;2023-02-03T10:36:20;1.30;99.90
38380;DHT22;38377;47.418;18.882;2023-02-03T10:41:15;1.20;99.90
38380;DHT22;38377;47.418;18.882;2023-02-03T10:43:42;1.20;99.90
38380;DHT22;38377;47.418;18.882;2023-02-03T10:46:32;1.20;99.90
38380;DHT22;38377;47.418;18.882;2023-02-03T10:48:58;1.20;99.90
38380;DHT22;38377;47.418;18.882;2023-02-03T10:53:49;1.20;99.90
38380;DHT22;38377;47.418;18.882;2023-02-03T10:56:36;1.20;99.90
38380;DHT22;38377;47.418;18.882;2023-02-03T10:59:02;1.20;99.90
38380;DHT22;38377;47.418;18.882;2023-02-03T11:01:45;1.10;99.90
38380;DHT22;38377;47.418;18.882;2023-02-03T11:04:24;1.10;99.90
38380;DHT22;38377;47.418;18.882;2023-02-03T11:06:55;1.10;99.90
38380;DHT22;38377;47.418;18.882;2023-02-03T11:09:22;1.20;99.90
38380;DHT22;38377;47.418;18.882;2023-02-03T11:12:01;1.20;99.90
38380;DHT22;38377;47.418;18.882;2023-02-03T11:14:34;1.10;99.90
38380;DHT22;38377;47.418;18.882;2023-02-03T11:17:04;1.10;99.90
38380;DHT22;38377;47.418;18.882;2023-02-03T11:19:30;1.20;99.90
38380;DHT22;38377;47.418;18.882;2023-02-03T11:21:56;1.20;99.90
38380;DHT22;38377;47.418;18.882;2023-02-03T11:26:48;1.20;99.90
38380;DHT22;38377;47.418;18.882;2023-02-03T11:29:25;1.10;99.90
38380;DHT22;38377;47.418;18.882;2023-02-03T11:31:56;1.10;99.90
38380;DHT22;38377;47.418;18.882;2023-02-03T11:34:29;1.10;99.90
38380;DHT22;38377;47.418;18.882;2023-02-03T11:36:55;1.10;99.90
38380;DHT22;38377;47.418;18.882;2023-02-03T11:39:25;1.10;99.90
38380;DHT22;38377;47.418;18.882;2023-02-03T11:41:51;1.10;99.90
38380;DHT22;38377;47.418;18.882;2023-02-03T11:44:18;1.10;99.90
38380;DHT22;38377;47.418;18.882;2023-02-03T11:46:48;1.10;99.90
38380;DHT22;38377;47.418;18.882;2023-02-03T11:54:24;1.10;99.90
38380;DHT22;38377;47.418;18.882;2023-02-03T12:10:03;1.20;99.90
38380;DHT22;38377;47.418;18.882;2023-02-03T12:22:52;1.10;99.90
38380;DHT22;38377;47.418;18.882;2023-02-03T12:28:10;1.10;99.90
38380;DHT22;38377;47.418;18.882;2023-02-03T12:30:41;1.20;99.90
38380;DHT22;38377;47.418;18.882;2023-02-03T12:33:18;1.20;99.90
38380;DHT22;38377;47.418;18.882;2023-02-03T12:35:47;1.20;99.90
38380;DHT22;38377;47.418;18.882;2023-02-03T12:38:24;1.30;99.90
38380;DHT22;38377;47.418;18.882;2023-02-03T12:40:53;1.20;99.90
38380;DHT22;38377;47.418;18.882;2023-02-03T12:43:24;1.20;99.90
38380;DHT22;38377;47.418;18.882;2023-02-03T12:46:02;1.20;99.90
38380;DHT22;38377;47.418;18.882;2023-02-03T12:48:35;1.20;99.90
38380;DHT22;38377;47.418;18.882;2023-02-03T12:51:05;1.20;99.90
38380;DHT22;38377;47.418;18.882;2023-02-03T12:53:33;1.10;99.90
38380;DHT22;38377;47.418;18.882;2023-02-03T12:56:02;1.10;99.90
38380;DHT22;38377;47.418;18.882;2023-02-03T13:03:35;1.20;99.90
38380;DHT22;38377;47.418;18.882;2023-02-03T13:08:30;1.20;99.90
38380;DHT22;38377;47.418;18.882;2023-02-03T13:11:09;1.20;99.90
38380;DHT22;38377;47.418;18.882;2023-02-03T13:13:41;1.20;99.90
38380;DHT22;38377;47.418;18.882;2023-02-03T13:16:07;1.20;99.90
38380;DHT22;38377;47.418;18.882;2023-02-03T13:18:36;1.30;99.90
38380;DHT22;38377;47.418;18.882;2023-02-03T13:21:04;1.30;99.90
38380;DHT22;38377;47.418;18.882;2023-02-03T13:23:30;1.30;99.90
38380;DHT22;38377;47.418;18.882;2023-02-03T13:28:56;1.30;99.90
38380;DHT22;38377;47.418;18.882;2023-02-03T13:31:44;1.30;99.90
38380;DHT22;38377;47.418;18.882;2023-02-03T13:34:20;1.40;99.90
38380;DHT22;38377;47.418;18.882;2023-02-03T13:39:45;1.50;99.90
38380;DHT22;38377;47.418;18.882;2023-02-03T13:44:43;1.50;99.90
38380;DHT22;38377;47.418;18.882;2023-02-03T13:47:43;1.50;99.90
38380;DHT22;38377;47.418;18.882;2023-02-03T13:50:03;1.50;99.90
38380;DHT22;38377;47.418;18.882;2023-02-03T13:58:00;1.60;99.90
38380;DHT22;38377;47.418;18.882;2023-02-03T14:05:57;1.70;99.90
38380;DHT22;38377;47.418;18.882;2023-02-03T14:13:38;1.80;99.90
38380;DHT22;38377;47.418;18.882;2023-02-03T14:18:58;1.80;99.90
38380;DHT22;38377;47.418;18.882;2023-02-03T14:21:23;1.80;99.90
38380;DHT22;38377;47.418;18.882;2023-02-03T14:23:55;1.80;99.90
38380;DHT22;38377;47.418;18.882;2023-02-03T14:26:23;1.80;99.90
38380;DHT22;38377;47.418;18.882;2023-02-03T14:28:52;1.80;99.90
38380;DHT22;38377;47.418;18.882;2023-02-03T14:31:19;1.90;99.90
38380;DHT22;38377;47.418;18.882;2023-02-03T14:39:00;1.90;99.90
38380;DHT22;38377;47.418;18.882;2023-02-03T14:41:40;1.90;99.90
38380;DHT22;38377;47.418;18.882;2023-02-03T14:46:45;2.00;99.90
38380;DHT22;38377;47.418;18.882;2023-02-03T14:55:01;2.10;99.90
38380;DHT22;38377;47.418;18.882;2023-02-03T14:57:44;2.10;99.90
38380;DHT22;38377;47.418;18.882;2023-02-03T15:09:09;2.20;99.90
38380;DHT22;38377;47.418;18.882;2023-02-03T15:13:40;2.20;99.90
38380;DHT22;38377;47.418;18.882;2023-02-03T15:16:09;2.30;99.90
38380;DHT22;38377;47.418;18.882;2023-02-03T15:18:37;2.20;99.90
38380;DHT22;38377;47.418;18.882;2023-02-03T15:21:04;2.20;99.90
38380;DHT22;38377;47.418;18.882;2023-02-03T15:23:38;2.30;99.90
38380;DHT22;38377;47.418;18.882;2023-02-03T15:26:22;2.30;99.90
38380;DHT22;38377;47.418;18.882;2023-02-03T15:28:55;2.40;99.90
38380;DHT22;38377;47.418;18.882;2023-02-03T15:31:23;2.40;99.90
38380;DHT22;38377;47.418;18.882;2023-02-03T15:33:51;2.40;99.90
38380;DHT22;38377;47.418;18.882;2023-02-03T15:36:21;2.40;99.90
38380;DHT22;38377;47.418;18.882;2023-02-03T15:38:49;2.40;99.90
38380;DHT22;38377;47.418;18.882;2023-02-03T15:41:20;2.40;99.90
38380;DHT22;38377;47.418;18.882;2023-02-03T15:43:46;2.50;99.90
38380;DHT22;38377;47.418;18.882;2023-02-03T15:51:10;2.50;99.90
38380;DHT22;38377;47.418;18.882;2023-02-03T15:53:47;2.50;99.90
38380;DHT22;38377;47.418;18.882;2023-02-03T15:56:20;2.50;99.90
38380;DHT22;38377;47.418;18.882;2023-02-03T15:58:46;2.50;99.90
38380;DHT22;38377;47.418;18.882;2023-02-03T16:01:13;2.60;99.90
38380;DHT22;38377;47.418;18.882;2023-02-03T16:03:49;2.60;99.90
38380;DHT22;38377;47.418;18.882;2023-02-03T16:08:52;2.60;99.90
38380;DHT22;38377;47.418;18.882;2023-02-03T16:13:46;2.70;99.90
38380;DHT22;38377;47.418;18.882;2023-02-03T16:16:15;2.70;99.90
38380;DHT22;38377;47.418;18.882;2023-02-03T16:18:52;2.70;99.90
38380;DHT22;38377;47.418;18.882;2023-02-03T16:22:01;2.70;99.90
38380;DHT22;38377;47.418;18.882;2023-02-03T16:24:31;2.70;99.90
38380;DHT22;38377;47.418;18.882;2023-02-03T16:29:43;2.70;99.90
38380;DHT22;38377;47.418;18.882;2023-02-03T16:32:27;2.70;99.90
38380;DHT22;38377;47.418;18.882;2023-02-03T16:35:11;2.70;99.90
38380;DHT22;38377;47.418;18.882;2023-02-03T16:37:55;2.70;99.90
38380;DHT22;38377;47.418;18.882;2023-02-03T16:40:47;2.70;99.90
38380;DHT22;38377;47.418;18.882;2023-02-03T16:43:31;2.70;99.90
38380;DHT22;38377;47.418;18.882;2023-02-03T16:46:15;2.70;99.90
38380;DHT22;38377;47.418;18.882;2023-02-03T16:49:00;2.70;99.90
38380;DHT22;38377;47.418;18.882;2023-02-03T16:51:44;2.70;99.90
38380;DHT22;38377;47.418;18.882;2023-02-03T16:54:10;2.80;99.90
38380;DHT22;38377;47.418;18.882;2023-02-03T16:56:37;2.80;99.90
38380;DHT22;38377;47.418;18.882;2023-02-03T16:59:03;2.70;99.90
38380;DHT22;38377;47.418;18.882;2023-02-03T17:01:28;2.80;99.90
38380;DHT22;38377;47.418;18.882;2023-02-03T17:03:54;2.80;99.90
38380;DHT22;38377;47.418;18.882;2023-02-03T17:06:20;2.80;99.90
38380;DHT22;38377;47.418;18.882;2023-02-03T17:08:45;2.80;99.90
38380;DHT22;38377;47.418;18.882;2023-02-03T17:11:18;2.80;99.90
38380;DHT22;38377;47.418;18.882;2023-02-03T17:13:44;2.80;99.90
38380;DHT22;38377;47.418;18.882;2023-02-03T17:16:11;2.80;99.90
38380;DHT22;38377;47.418;18.882;2023-02-03T17:18:37;2.80;99.90
38380;DHT22;38377;47.418;18.882;2023-02-03T17:21:04;2.90;99.90
38380;DHT22;38377;47.418;18.882;2023-02-03T17:23:30;2.90;99.90
38380;DHT22;38377;47.418;18.882;2023-02-03T17:25:56;3.00;99.90
38380;DHT22;38377;47.418;18.882;2023-02-03T17:28:21;3.00;99.90
38380;DHT22;38377;47.418;18.882;2023-02-03T17:31:05;3.00;99.90
38380;DHT22;38377;47.418;18.882;2023-02-03T17:33:32;3.00;99.90
38380;DHT22;38377;47.418;18.882;2023-02-03T17:35:59;3.00;99.90
38380;DHT22;38377;47.418;18.882;2023-02-03T17:38:25;3.10;99.90
38380;DHT22;38377;47.418;18.882;2023-02-03T17:40:50;3.10;99.90
38380;DHT22;38377;47.418;18.882;2023-02-03T17:43:16;3.10;99.90
38380;DHT22;38377;47.418;18.882;2023-02-03T17:45:42;3.10;99.90
38380;DHT22;38377;47.418;18.882;2023-02-03T17:48:07;3.10;99.90
38380;DHT22;38377;47.418;18.882;2023-02-03T17:50:33;3.20;99.90
38380;DHT22;38377;47.418;18.882;2023-02-03T17:52:59;3.20;99.90
38380;DHT22;38377;47.418;18.882;2023-02-03T17:55:24;3.20;99.90
38380;DHT22;38377;47.418;18.882;2023-02-03T17:57:50;3.20;99.90
38380;DHT22;38377;47.418;18.882;2023-02-03T18:00:15;3.30;99.90
38380;DHT22;38377;47.418;18.882;2023-02-03T18:02:41;3.30;99.90
38380;DHT22;38377;47.418;18.882;2023-02-03T18:05:07;3.30;99.90
38380;DHT22;38377;47.418;18.882;2023-02-03T18:07:33;3.40;99.90
38380;DHT22;38377;47.418;18.882;2023-02-03T18:09:58;3.30;99.90
38380;DHT22;38377;47.418;18.882;2023-02-03T18:12:24;3.40;99.90
38380;DHT22;38377;47.418;18.882;2023-02-03T18:14:49;3.40;99.90
38380;DHT22;38377;47.418;18.882;2023-02-03T18:17:15;3.40;99.90